sensor_id;sensor_type;location;lat;lon;timestamp;pressure;altitude;pressure_sealevel;temperature;humidity
25855;BME280;13680;49.936;11.344;2023-07-31T00:02:01;96668.22;;;15.24;77.52
25855;BME280;13680;49.936;11.344;2023-07-31T00:04:26;96665.03;;;15.21;77.31
25855;BME280;13680;49.936;11.344;2023-07-31T00:06:51;96653.66;;;15.28;77.22
25855;BME280;13680;49.936;11.344;2023-07-31T00:09:17;96658.50;;;15.22;77.84
25855;BME280;13680;49.936;11.344;2023-07-31T00:11:42;96660.84;;;15.24;77.57
25855;BME280;13680;49.936;11.344;2023-07-31T00:14:07;96657.50;;;15.27;77.58
25855;BME280;13680;49.936;11.344;2023-07-31T00:16:33;96650.84;;;15.25;78.05
25855;BME280;13680;49.936;11.344;2023-07-31T00:18:58;96651.28;;;15.27;77.97
25855;BME280;13680;49.936;11.344;2023-07-31T00:21:23;96648.22;;;15.28;78.12
25855;BME280;13680;49.936;11.344;2023-07-31T00:23:49;96645.31;;;15.33;77.99
25855;BME280;13680;49.936;11.344;2023-07-31T00:26:15;96653.13;;;15.35;78.19
25855;BME280;13680;49.936;11.344;2023-07-31T00:28:40;96648.16;;;15.37;77.96
25855;BME280;13680;49.936;11.344;2023-07-31T00:31:06;96653.91;;;15.35;78.36
25855;BME280;13680;49.936;11.344;2023-07-31T00:33:31;96647.03;;;15.38;78.55
25855;BME280;13680;49.936;11.344;2023-07-31T00:35:56;96641.75;;;15.42;78.29
25855;BME280;13680;49.936;11.344;2023-07-31T00:38:22;96647.94;;;15.42;78.41
25855;BME280;13680;49.936;11.344;2023-07-31T00:40:47;96646.81;;;15.43;78.52
25855;BME280;13680;49.936;11.344;2023-07-31T00:43:12;96650.44;;;15.47;78.64
25855;BME280;13680;49.936;11.344;2023-07-31T00:45:38;96653.63;;;15.49;78.61
25855;BME280;13680;49.936;11.344;2023-07-31T00:48:04;96650.13;;;15.49;78.95
25855;BME280;13680;49.936;11.344;2023-07-31T00:50:31;96643.34;;;15.55;78.75
25855;BME280;13680;49.936;11.344;2023-07-31T00:52:56;96635.34;;;15.59;78.98
25855;BME280;13680;49.936;11.344;2023-07-31T00:55:22;96640.00;;;15.58;79.31
25855;BME280;13680;49.936;11.344;2023-07-31T00:57:48;96644.72;;;15.61;79.31
25855;BME280;13680;49.936;11.344;2023-07-31T01:00:13;96641.88;;;15.58;79.92
25855;BME280;13680;49.936;11.344;2023-07-31T01:02:38;96644.84;;;15.65;79.90
25855;BME280;13680;49.936;11.344;2023-07-31T01:05:04;96639.69;;;15.72;79.54
25855;BME280;13680;49.936;11.344;2023-07-31T01:08:04;96640.59;;;15.76;79.41
25855;BME280;13680;49.936;11.344;2023-07-31T01:10:37;96645.66;;;15.78;79.73
25855;BME280;13680;49.936;11.344;2023-07-31T01:13:05;96642.00;;;15.82;79.68
25855;BME280;13680;49.936;11.344;2023-07-31T01:15:31;96640.53;;;15.85;79.67
25855;BME280;13680;49.936;11.344;2023-07-31T01:17:56;96647.19;;;15.87;80.01
25855;BME280;13680;49.936;11.344;2023-07-31T01:20:23;96636.47;;;15.91;80.05
25855;BME280;13680;49.936;11.344;2023-07-31T01:25:54;96629.72;;;15.97;79.71
25855;BME280;13680;49.936;11.344;2023-07-31T01:28:30;96630.81;;;15.96;79.57
25855;BME280;13680;49.936;11.344;2023-07-31T01:31:00;96624.38;;;15.89;80.54
25855;BME280;13680;49.936;11.344;2023-07-31T01:33:25;96628.47;;;15.95;80.64
25855;BME280;13680;49.936;11.344;2023-07-31T01:35:51;96625.06;;;15.98;80.44
25855;BME280;13680;49.936;11.344;2023-07-31T01:38:21;96615.81;;;15.99;79.90
25855;BME280;13680;49.936;11.344;2023-07-31T01:40:51;96619.06;;;16.04;80.36
25855;BME280;13680;49.936;11.344;2023-07-31T01:43:16;96624.50;;;16.04;80.23
25855;BME280;13680;49.936;11.344;2023-07-31T01:45:42;96620.78;;;16.09;80.12
25855;BME280;13680;49.936;11.344;2023-07-31T01:48:07;96618.06;;;16.09;80.01
25855;BME280;13680;49.936;11.344;2023-07-31T01:50:32;96621.00;;;16.16;79.41
25855;BME280;13680;49.936;11.344;2023-07-31T01:52:58;96606.09;;;16.10;79.35
25855;BME280;13680;49.936;11.344;2023-07-31T01:55:23;96600.31;;;16.12;79.79
25855;BME280;13680;49.936;11.344;2023-07-31T01:57:48;96597.16;;;16.10;79.89
25855;BME280;13680;49.936;11.344;2023-07-31T02:00:14;96596.13;;;16.14;80.15
25855;BME280;13680;49.936;11.344;2023-07-31T02:02:39;96595.00;;;16.15;80.94
25855;BME280;13680;49.936;11.344;2023-07-31T02:05:05;96597.84;;;16.19;80.68
25855;BME280;13680;49.936;11.344;2023-07-31T02:07:30;96592.41;;;16.19;80.96
25855;BME280;13680;49.936;11.344;2023-07-31T02:09:56;96593.66;;;16.22;80.95
25855;BME280;13680;49.936;11.344;2023-07-31T02:12:21;96585.28;;;16.14;81.56
25855;BME280;13680;49.936;11.344;2023-07-31T02:14:46;96575.31;;;16.18;81.51
25855;BME280;13680;49.936;11.344;2023-07-31T02:17:12;96576.81;;;16.16;81.46
25855;BME280;13680;49.936;11.344;2023-07-31T02:19:37;96571.38;;;16.16;81.99
25855;BME280;13680;49.936;11.344;2023-07-31T02:22:02;96563.91;;;16.25;81.52
25855;BME280;13680;49.936;11.344;2023-07-31T02:24:28;96564.72;;;16.26;81.67
25855;BME280;13680;49.936;11.344;2023-07-31T02:26:53;96559.28;;;16.26;81.74
25855;BME280;13680;49.936;11.344;2023-07-31T02:29:18;96553.84;;;16.26;81.78
25855;BME280;13680;49.936;11.344;2023-07-31T02:31:43;96548.53;;;16.29;81.57
25855;BME280;13680;49.936;11.344;2023-07-31T02:34:09;96557.69;;;16.25;82.14
25855;BME280;13680;49.936;11.344;2023-07-31T02:36:34;96550.78;;;16.27;82.39
25855;BME280;13680;49.936;11.344;2023-07-31T02:38:59;96553.16;;;16.29;82.72
25855;BME280;13680;49.936;11.344;2023-07-31T02:41:25;96551.03;;;16.34;82.46
25855;BME280;13680;49.936;11.344;2023-07-31T02:43:50;96553.38;;;16.36;82.10
25855;BME280;13680;49.936;11.344;2023-07-31T02:46:15;96551.13;;;16.38;82.65
25855;BME280;13680;49.936;11.344;2023-07-31T02:48:41;96557.09;;;16.44;82.23
25855;BME280;13680;49.936;11.344;2023-07-31T02:51:06;96555.16;;;16.44;82.11
25855;BME280;13680;49.936;11.344;2023-07-31T02:53:31;96561.84;;;16.47;81.76
25855;BME280;13680;49.936;11.344;2023-07-31T02:55:57;96566.13;;;16.48;81.99
25855;BME280;13680;49.936;11.344;2023-07-31T02:58:22;96557.22;;;16.47;81.40
25855;BME280;13680;49.936;11.344;2023-07-31T03:00:47;96556.41;;;16.47;81.62
25855;BME280;13680;49.936;11.344;2023-07-31T03:03:13;96549.06;;;16.47;81.30
25855;BME280;13680;49.936;11.344;2023-07-31T03:05:38;96553.03;;;16.50;81.36
25855;BME280;13680;49.936;11.344;2023-07-31T03:08:03;96544.41;;;16.48;81.71
25855;BME280;13680;49.936;11.344;2023-07-31T03:10:29;96541.34;;;16.49;81.63
25855;BME280;13680;49.936;11.344;2023-07-31T03:12:54;96540.13;;;16.47;82.05
25855;BME280;13680;49.936;11.344;2023-07-31T03:15:19;96546.00;;;16.49;82.05
25855;BME280;13680;49.936;11.344;2023-07-31T03:17:45;96537.97;;;16.52;81.75
25855;BME280;13680;49.936;11.344;2023-07-31T03:20:10;96542.28;;;16.53;81.52
25855;BME280;13680;49.936;11.344;2023-07-31T03:22:36;96543.75;;;16.51;82.24
25855;BME280;13680;49.936;11.344;2023-07-31T03:25:02;96539.22;;;16.55;81.76
25855;BME280;13680;49.936;11.344;2023-07-31T03:27:28;96527.66;;;16.58;81.50
25855;BME280;13680;49.936;11.344;2023-07-31T03:29:53;96534.00;;;16.62;81.55
25855;BME280;13680;49.936;11.344;2023-07-31T03:32:18;96530.03;;;16.60;81.48
25855;BME280;13680;49.936;11.344;2023-07-31T03:34:44;96537.13;;;16.64;81.32
25855;BME280;13680;49.936;11.344;2023-07-31T03:37:09;96532.94;;;16.67;81.28
25855;BME280;13680;49.936;11.344;2023-07-31T03:39:35;96532.59;;;16.68;80.85
25855;BME280;13680;49.936;11.344;2023-07-31T03:42:00;96533.66;;;16.64;81.29
25855;BME280;13680;49.936;11.344;2023-07-31T03:44:25;96531.59;;;16.61;81.28
25855;BME280;13680;49.936;11.344;2023-07-31T03:46:51;96536.34;;;16.64;80.98
25855;BME280;13680;49.936;11.344;2023-07-31T03:49:16;96549.94;;;16.64;80.96
25855;BME280;13680;49.936;11.344;2023-07-31T03:51:42;96538.63;;;16.62;81.45
25855;BME280;13680;49.936;11.344;2023-07-31T03:54:07;96540.41;;;16.70;81.43
25855;BME280;13680;49.936;11.344;2023-07-31T03:56:33;96527.25;;;16.72;81.34
25855;BME280;13680;49.936;11.344;2023-07-31T03:58:58;96532.50;;;16.65;81.16
25855;BME280;13680;49.936;11.344;2023-07-31T04:01:24;96544.25;;;16.69;80.77
25855;BME280;13680;49.936;11.344;2023-07-31T04:03:49;96538.38;;;16.67;80.42
25855;BME280;13680;49.936;11.344;2023-07-31T04:06:14;96532.69;;;16.72;80.27
25855;BME280;13680;49.936;11.344;2023-07-31T04:08:43;96526.34;;;16.80;79.92
25855;BME280;13680;49.936;11.344;2023-07-31T04:11:09;96522.03;;;16.79;79.35
25855;BME280;13680;49.936;11.344;2023-07-31T04:13:34;96518.97;;;16.81;79.71
25855;BME280;13680;49.936;11.344;2023-07-31T04:16:00;96520.66;;;16.85;79.45
25855;BME280;13680;49.936;11.344;2023-07-31T04:18:25;96515.34;;;16.89;78.64
25855;BME280;13680;49.936;11.344;2023-07-31T04:20:51;96517.28;;;16.76;75.65
25855;BME280;13680;49.936;11.344;2023-07-31T04:23:16;96515.47;;;16.80;75.94
25855;BME280;13680;49.936;11.344;2023-07-31T04:25:41;96517.03;;;16.94;75.65
25855;BME280;13680;49.936;11.344;2023-07-31T04:28:07;96529.22;;;17.00;75.83
25855;BME280;13680;49.936;11.344;2023-07-31T04:30:33;96526.97;;;17.02;75.60
25855;BME280;13680;49.936;11.344;2023-07-31T04:32:58;96531.59;;;17.01;76.15
25855;BME280;13680;49.936;11.344;2023-07-31T04:35:23;96526.72;;;17.07;76.26
25855;BME280;13680;49.936;11.344;2023-07-31T04:37:49;96527.13;;;17.09;76.25
25855;BME280;13680;49.936;11.344;2023-07-31T04:40:15;96521.44;;;17.14;76.32
25855;BME280;13680;49.936;11.344;2023-07-31T04:42:40;96511.47;;;17.18;74.77
25855;BME280;13680;49.936;11.344;2023-07-31T04:45:07;96513.75;;;17.16;74.82
25855;BME280;13680;49.936;11.344;2023-07-31T04:47:32;96514.63;;;17.21;74.65
25855;BME280;13680;49.936;11.344;2023-07-31T04:49:58;96518.00;;;17.30;73.79
25855;BME280;13680;49.936;11.344;2023-07-31T04:52:23;96520.72;;;17.30;74.23
25855;BME280;13680;49.936;11.344;2023-07-31T04:54:48;96521.38;;;17.27;73.81
25855;BME280;13680;49.936;11.344;2023-07-31T04:57:14;96522.72;;;17.33;72.64
25855;BME280;13680;49.936;11.344;2023-07-31T04:59:39;96529.72;;;17.34;71.37
25855;BME280;13680;49.936;11.344;2023-07-31T05:02:05;96523.84;;;17.32;72.18
25855;BME280;13680;49.936;11.344;2023-07-31T05:04:30;96533.69;;;17.37;72.61
25855;BME280;13680;49.936;11.344;2023-07-31T05:06:56;96520.50;;;17.39;73.02
25855;BME280;13680;49.936;11.344;2023-07-31T05:09:21;96522.72;;;17.33;74.17
25855;BME280;13680;49.936;11.344;2023-07-31T05:11:46;96528.59;;;17.35;73.34
25855;BME280;13680;49.936;11.344;2023-07-31T05:14:11;96538.06;;;17.41;72.78
25855;BME280;13680;49.936;11.344;2023-07-31T05:16:37;96535.53;;;17.48;71.21
25855;BME280;13680;49.936;11.344;2023-07-31T05:19:02;96532.34;;;17.46;70.86
25855;BME280;13680;49.936;11.344;2023-07-31T05:21:27;96522.47;;;17.54;71.03
25855;BME280;13680;49.936;11.344;2023-07-31T05:23:53;96526.41;;;17.57;71.11
25855;BME280;13680;49.936;11.344;2023-07-31T05:26:18;96524.31;;;17.66;72.17
25855;BME280;13680;49.936;11.344;2023-07-31T05:28:43;96520.00;;;17.65;70.33
25855;BME280;13680;49.936;11.344;2023-07-31T05:31:09;96516.06;;;17.62;71.22
25855;BME280;13680;49.936;11.344;2023-07-31T05:33:34;96525.88;;;17.67;71.02
25855;BME280;13680;49.936;11.344;2023-07-31T05:35:59;96531.31;;;17.67;71.29
25855;BME280;13680;49.936;11.344;2023-07-31T05:38:25;96526.41;;;17.73;70.01
25855;BME280;13680;49.936;11.344;2023-07-31T05:40:50;96524.56;;;17.77;69.18
25855;BME280;13680;49.936;11.344;2023-07-31T05:43:15;96526.50;;;17.76;67.34
25855;BME280;13680;49.936;11.344;2023-07-31T05:45:43;96512.19;;;17.95;67.88
25855;BME280;13680;49.936;11.344;2023-07-31T05:48:09;96518.56;;;17.87;68.00
25855;BME280;13680;49.936;11.344;2023-07-31T05:50:34;96515.00;;;17.99;68.63
25855;BME280;13680;49.936;11.344;2023-07-31T05:52:59;96512.69;;;18.01;69.35
25855;BME280;13680;49.936;11.344;2023-07-31T05:55:25;96514.47;;;18.09;68.50
25855;BME280;13680;49.936;11.344;2023-07-31T05:57:54;96509.19;;;17.84;66.36
25855;BME280;13680;49.936;11.344;2023-07-31T06:00:19;96508.56;;;18.07;65.72
25855;BME280;13680;49.936;11.344;2023-07-31T06:02:49;96510.88;;;18.05;65.86
25855;BME280;13680;49.936;11.344;2023-07-31T06:05:14;96516.81;;;18.11;64.89
25855;BME280;13680;49.936;11.344;2023-07-31T06:07:40;96513.63;;;18.25;65.26
25855;BME280;13680;49.936;11.344;2023-07-31T06:10:06;96511.41;;;18.30;66.32
25855;BME280;13680;49.936;11.344;2023-07-31T06:12:32;96507.19;;;18.33;65.89
25855;BME280;13680;49.936;11.344;2023-07-31T06:14:57;96505.75;;;18.39;65.66
25855;BME280;13680;49.936;11.344;2023-07-31T06:17:23;96506.41;;;18.32;64.39
25855;BME280;13680;49.936;11.344;2023-07-31T06:19:49;96503.41;;;18.57;63.71
25855;BME280;13680;49.936;11.344;2023-07-31T06:22:14;96492.81;;;18.72;63.42
25855;BME280;13680;49.936;11.344;2023-07-31T06:24:40;96502.13;;;19.10;65.03
25855;BME280;13680;49.936;11.344;2023-07-31T06:27:06;96491.34;;;19.40;63.82
25855;BME280;13680;49.936;11.344;2023-07-31T06:29:31;96497.00;;;19.28;61.96
25855;BME280;13680;49.936;11.344;2023-07-31T06:31:57;96490.69;;;19.47;60.94
25855;BME280;13680;49.936;11.344;2023-07-31T06:34:22;96496.16;;;19.47;60.62
25855;BME280;13680;49.936;11.344;2023-07-31T06:36:47;96492.00;;;19.34;60.91
25855;BME280;13680;49.936;11.344;2023-07-31T06:39:13;96494.13;;;19.44;60.68
25855;BME280;13680;49.936;11.344;2023-07-31T06:41:38;96502.63;;;19.39;60.38
25855;BME280;13680;49.936;11.344;2023-07-31T06:44:04;96504.94;;;19.37;61.10
25855;BME280;13680;49.936;11.344;2023-07-31T06:46:29;96503.81;;;19.41;60.43
25855;BME280;13680;49.936;11.344;2023-07-31T06:48:54;96507.28;;;19.38;60.52
25855;BME280;13680;49.936;11.344;2023-07-31T06:51:20;96498.28;;;19.34;61.20
25855;BME280;13680;49.936;11.344;2023-07-31T06:53:46;96508.44;;;19.37;60.20
25855;BME280;13680;49.936;11.344;2023-07-31T06:56:11;96507.91;;;19.51;60.20
25855;BME280;13680;49.936;11.344;2023-07-31T06:58:36;96509.28;;;19.41;60.32
25855;BME280;13680;49.936;11.344;2023-07-31T07:01:02;96515.34;;;19.31;60.39
25855;BME280;13680;49.936;11.344;2023-07-31T07:03:27;96516.47;;;19.30;60.38
25855;BME280;13680;49.936;11.344;2023-07-31T07:05:53;96500.09;;;19.26;61.09
25855;BME280;13680;49.936;11.344;2023-07-31T07:08:18;96503.75;;;19.14;60.76
25855;BME280;13680;49.936;11.344;2023-07-31T07:10:43;96503.63;;;19.07;61.48
25855;BME280;13680;49.936;11.344;2023-07-31T07:13:09;96500.41;;;19.25;61.08
25855;BME280;13680;49.936;11.344;2023-07-31T07:15:34;96511.91;;;19.34;60.58
25855;BME280;13680;49.936;11.344;2023-07-31T07:18:00;96511.09;;;19.34;60.00
25855;BME280;13680;49.936;11.344;2023-07-31T07:20:25;96503.41;;;19.39;60.25
25855;BME280;13680;49.936;11.344;2023-07-31T07:22:50;96504.91;;;19.13;63.14
25855;BME280;13680;49.936;11.344;2023-07-31T07:25:16;96511.78;;;19.50;60.40
25855;BME280;13680;49.936;11.344;2023-07-31T07:27:41;96519.56;;;19.52;60.48
25855;BME280;13680;49.936;11.344;2023-07-31T07:30:07;96512.56;;;19.74;60.69
25855;BME280;13680;49.936;11.344;2023-07-31T07:32:32;96501.69;;;20.01;60.63
25855;BME280;13680;49.936;11.344;2023-07-31T07:34:58;96505.69;;;20.10;58.93
25855;BME280;13680;49.936;11.344;2023-07-31T07:37:23;96497.47;;;20.34;60.86
25855;BME280;13680;49.936;11.344;2023-07-31T07:39:49;96498.94;;;20.58;58.85
25855;BME280;13680;49.936;11.344;2023-07-31T07:42:15;96496.06;;;20.47;57.82
25855;BME280;13680;49.936;11.344;2023-07-31T07:44:40;96490.81;;;20.65;58.32
25855;BME280;13680;49.936;11.344;2023-07-31T07:47:05;96488.16;;;20.38;58.38
25855;BME280;13680;49.936;11.344;2023-07-31T07:49:34;96487.69;;;20.33;57.31
25855;BME280;13680;49.936;11.344;2023-07-31T07:52:00;96494.44;;;20.73;56.80
25855;BME280;13680;49.936;11.344;2023-07-31T07:54:26;96491.84;;;20.84;57.37
25855;BME280;13680;49.936;11.344;2023-07-31T07:56:51;96495.22;;;21.07;55.23
25855;BME280;13680;49.936;11.344;2023-07-31T07:59:16;96493.59;;;20.38;56.98
25855;BME280;13680;49.936;11.344;2023-07-31T08:01:42;96492.22;;;20.82;56.61
25855;BME280;13680;49.936;11.344;2023-07-31T08:04:07;96486.66;;;20.14;58.15
25855;BME280;13680;49.936;11.344;2023-07-31T08:06:32;96491.91;;;20.87;56.22
25855;BME280;13680;49.936;11.344;2023-07-31T08:08:59;96482.03;;;20.49;57.98
25855;BME280;13680;49.936;11.344;2023-07-31T08:11:24;96483.78;;;20.64;56.51
25855;BME280;13680;49.936;11.344;2023-07-31T08:13:50;96475.00;;;21.57;55.39
25855;BME280;13680;49.936;11.344;2023-07-31T08:16:15;96472.59;;;22.04;53.47
25855;BME280;13680;49.936;11.344;2023-07-31T08:18:41;96480.75;;;21.93;52.88
25855;BME280;13680;49.936;11.344;2023-07-31T08:21:08;96488.44;;;21.77;53.01
25855;BME280;13680;49.936;11.344;2023-07-31T08:23:33;96476.97;;;21.60;53.71
25855;BME280;13680;49.936;11.344;2023-07-31T08:25:59;96469.94;;;22.22;53.06
25855;BME280;13680;49.936;11.344;2023-07-31T08:28:25;96466.44;;;21.62;53.75
25855;BME280;13680;49.936;11.344;2023-07-31T08:30:51;96477.97;;;21.89;53.02
25855;BME280;13680;49.936;11.344;2023-07-31T08:33:16;96469.00;;;22.66;52.48
25855;BME280;13680;49.936;11.344;2023-07-31T08:35:41;96464.28;;;22.67;51.65
25855;BME280;13680;49.936;11.344;2023-07-31T08:38:07;96462.47;;;23.11;51.12
25855;BME280;13680;49.936;11.344;2023-07-31T08:40:36;96454.13;;;22.75;51.57
25855;BME280;13680;49.936;11.344;2023-07-31T08:43:01;96462.81;;;22.84;51.24
25855;BME280;13680;49.936;11.344;2023-07-31T08:45:28;96458.47;;;22.79;51.22
25855;BME280;13680;49.936;11.344;2023-07-31T08:47:55;96460.91;;;23.20;51.18
25855;BME280;13680;49.936;11.344;2023-07-31T08:50:21;96457.81;;;23.62;49.43
25855;BME280;13680;49.936;11.344;2023-07-31T08:52:48;96460.53;;;23.18;49.13
25855;BME280;13680;49.936;11.344;2023-07-31T08:55:14;96458.50;;;22.90;50.49
25855;BME280;13680;49.936;11.344;2023-07-31T08:57:40;96461.97;;;22.80;50.95
25855;BME280;13680;49.936;11.344;2023-07-31T09:00:08;96452.72;;;23.64;49.15
25855;BME280;13680;49.936;11.344;2023-07-31T09:05:29;96439.38;;;23.77;50.40
25855;BME280;13680;49.936;11.344;2023-07-31T09:07:55;96448.78;;;23.94;47.76
25855;BME280;13680;49.936;11.344;2023-07-31T09:10:21;96444.06;;;23.91;49.30
25855;BME280;13680;49.936;11.344;2023-07-31T09:12:48;96438.13;;;24.25;47.66
25855;BME280;13680;49.936;11.344;2023-07-31T09:15:13;96433.03;;;24.16;47.24
25855;BME280;13680;49.936;11.344;2023-07-31T09:17:39;96438.16;;;24.10;48.56
25855;BME280;13680;49.936;11.344;2023-07-31T09:20:18;96432.72;;;23.34;48.54
25855;BME280;13680;49.936;11.344;2023-07-31T09:22:45;96427.63;;;23.36;49.90
25855;BME280;13680;49.936;11.344;2023-07-31T09:25:17;96427.63;;;23.62;48.74
25855;BME280;13680;49.936;11.344;2023-07-31T09:30:16;96425.06;;;22.41;51.78
25855;BME280;13680;49.936;11.344;2023-07-31T09:32:44;96420.47;;;22.74;51.58
25855;BME280;13680;49.936;11.344;2023-07-31T09:35:20;96422.94;;;23.33;50.08
25855;BME280;13680;49.936;11.344;2023-07-31T09:37:59;96416.97;;;22.74;50.09
25855;BME280;13680;49.936;11.344;2023-07-31T09:40:30;96415.88;;;23.32;50.48
25855;BME280;13680;49.936;11.344;2023-07-31T09:43:06;96420.38;;;22.38;50.64
25855;BME280;13680;49.936;11.344;2023-07-31T09:45:34;96430.53;;;22.37;51.15
25855;BME280;13680;49.936;11.344;2023-07-31T09:48:01;96417.88;;;22.11;51.90
25855;BME280;13680;49.936;11.344;2023-07-31T09:50:27;96429.84;;;21.85;52.68
25855;BME280;13680;49.936;11.344;2023-07-31T09:52:54;96421.72;;;21.96;52.82
25855;BME280;13680;49.936;11.344;2023-07-31T09:55:19;96422.78;;;22.61;52.20
25855;BME280;13680;49.936;11.344;2023-07-31T09:57:48;96425.88;;;22.49;51.88
25855;BME280;13680;49.936;11.344;2023-07-31T10:00:17;96418.69;;;22.19;52.58
25855;BME280;13680;49.936;11.344;2023-07-31T10:02:46;96414.97;;;22.70;52.08
25855;BME280;13680;49.936;11.344;2023-07-31T10:05:14;96416.91;;;22.52;52.45
25855;BME280;13680;49.936;11.344;2023-07-31T10:07:42;96409.13;;;22.76;52.29
25855;BME280;13680;49.936;11.344;2023-07-31T10:10:08;96414.78;;;22.27;52.48
25855;BME280;13680;49.936;11.344;2023-07-31T10:12:35;96405.03;;;22.30;52.86
25855;BME280;13680;49.936;11.344;2023-07-31T10:15:01;96403.19;;;22.52;52.81
25855;BME280;13680;49.936;11.344;2023-07-31T10:17:29;96394.59;;;22.64;52.48
25855;BME280;13680;49.936;11.344;2023-07-31T10:19:56;96401.59;;;22.44;52.87
25855;BME280;13680;49.936;11.344;2023-07-31T10:22:23;96401.28;;;22.78;51.40
25855;BME280;13680;49.936;11.344;2023-07-31T10:24:50;96394.47;;;22.32;52.55
25855;BME280;13680;49.936;11.344;2023-07-31T10:27:17;96391.44;;;22.55;51.63
25855;BME280;13680;49.936;11.344;2023-07-31T10:29:43;96394.66;;;22.89;50.56
25855;BME280;13680;49.936;11.344;2023-07-31T10:32:12;96384.91;;;23.43;49.86
25855;BME280;13680;49.936;11.344;2023-07-31T10:34:39;96386.00;;;22.62;51.26
25855;BME280;13680;49.936;11.344;2023-07-31T10:40:04;96382.09;;;22.63;51.37
25855;BME280;13680;49.936;11.344;2023-07-31T10:42:38;96366.41;;;23.94;48.26
25855;BME280;13680;49.936;11.344;2023-07-31T10:45:09;96371.84;;;24.08;48.54
25855;BME280;13680;49.936;11.344;2023-07-31T10:47:46;96363.19;;;24.10;46.85
25855;BME280;13680;49.936;11.344;2023-07-31T10:50:19;96371.94;;;23.68;48.58
25855;BME280;13680;49.936;11.344;2023-07-31T10:52:56;96357.84;;;23.56;49.01
25855;BME280;13680;49.936;11.344;2023-07-31T10:55:26;96360.59;;;23.56;48.95
25855;BME280;13680;49.936;11.344;2023-07-31T10:57:53;96367.19;;;23.80;48.18
25855;BME280;13680;49.936;11.344;2023-07-31T11:00:25;96346.47;;;23.50;49.11
25855;BME280;13680;49.936;11.344;2023-07-31T11:02:59;96350.00;;;23.40;48.70
25855;BME280;13680;49.936;11.344;2023-07-31T11:08:16;96354.63;;;23.86;48.53
25855;BME280;13680;49.936;11.344;2023-07-31T11:10:45;96351.97;;;23.50;48.93
25855;BME280;13680;49.936;11.344;2023-07-31T11:13:11;96345.34;;;23.15;49.71
25855;BME280;13680;49.936;11.344;2023-07-31T11:15:37;96345.75;;;23.17;50.04
25855;BME280;13680;49.936;11.344;2023-07-31T11:18:02;96355.50;;;23.11;50.35
25855;BME280;13680;49.936;11.344;2023-07-31T11:20:34;96349.63;;;23.30;49.70
25855;BME280;13680;49.936;11.344;2023-07-31T11:23:01;96345.31;;;23.29;49.60
25855;BME280;13680;49.936;11.344;2023-07-31T11:25:29;96345.72;;;23.31;50.52
25855;BME280;13680;49.936;11.344;2023-07-31T11:27:55;96353.91;;;23.57;49.29
25855;BME280;13680;49.936;11.344;2023-07-31T11:30:21;96351.88;;;24.00;49.80
25855;BME280;13680;49.936;11.344;2023-07-31T11:32:47;96348.78;;;23.73;48.47
25855;BME280;13680;49.936;11.344;2023-07-31T11:35:12;96353.53;;;23.58;49.37
25855;BME280;13680;49.936;11.344;2023-07-31T11:37:41;96354.31;;;23.04;50.12
25855;BME280;13680;49.936;11.344;2023-07-31T11:40:07;96350.44;;;23.31;50.24
25855;BME280;13680;49.936;11.344;2023-07-31T11:42:34;96347.69;;;23.24;50.03
25855;BME280;13680;49.936;11.344;2023-07-31T11:45:02;96342.19;;;23.49;49.05
25855;BME280;13680;49.936;11.344;2023-07-31T11:47:28;96336.59;;;23.85;49.02
25855;BME280;13680;49.936;11.344;2023-07-31T11:49:53;96332.66;;;23.93;49.00
25855;BME280;13680;49.936;11.344;2023-07-31T11:52:18;96333.81;;;23.99;48.20
25855;BME280;13680;49.936;11.344;2023-07-31T11:54:48;96344.13;;;23.59;49.06
25855;BME280;13680;49.936;11.344;2023-07-31T11:57:14;96344.53;;;23.40;48.89
25855;BME280;13680;49.936;11.344;2023-07-31T11:59:40;96344.13;;;23.12;49.81
25855;BME280;13680;49.936;11.344;2023-07-31T12:02:06;96339.06;;;23.18;48.92
25855;BME280;13680;49.936;11.344;2023-07-31T12:04:31;96341.41;;;23.30;49.91
25855;BME280;13680;49.936;11.344;2023-07-31T12:06:56;96351.56;;;22.97;49.34
25855;BME280;13680;49.936;11.344;2023-07-31T12:09:21;96341.75;;;22.75;49.69
25855;BME280;13680;49.936;11.344;2023-07-31T12:11:47;96337.47;;;22.88;49.56
25855;BME280;13680;49.936;11.344;2023-07-31T12:14:24;96337.84;;;22.76;49.96
25855;BME280;13680;49.936;11.344;2023-07-31T12:16:58;96326.09;;;22.68;49.57
25855;BME280;13680;49.936;11.344;2023-07-31T12:19:25;96322.59;;;22.93;49.90
25855;BME280;13680;49.936;11.344;2023-07-31T12:21:58;96312.41;;;23.29;49.16
25855;BME280;13680;49.936;11.344;2023-07-31T12:24:26;96333.94;;;22.77;50.22
25855;BME280;13680;49.936;11.344;2023-07-31T12:26:51;96327.66;;;22.58;50.09
25855;BME280;13680;49.936;11.344;2023-07-31T12:29:17;96326.41;;;22.34;52.16
25855;BME280;13680;49.936;11.344;2023-07-31T12:31:43;96325.66;;;22.37;52.95
25855;BME280;13680;49.936;11.344;2023-07-31T12:34:16;96326.91;;;22.83;53.24
25855;BME280;13680;49.936;11.344;2023-07-31T12:36:43;96325.72;;;22.84;52.48
25855;BME280;13680;49.936;11.344;2023-07-31T12:39:08;96324.97;;;23.16;52.60
25855;BME280;13680;49.936;11.344;2023-07-31T12:41:34;96316.72;;;22.72;52.66
25855;BME280;13680;49.936;11.344;2023-07-31T12:43:59;96316.72;;;22.94;52.05
25855;BME280;13680;49.936;11.344;2023-07-31T12:46:24;96317.13;;;23.21;49.93
25855;BME280;13680;49.936;11.344;2023-07-31T12:48:49;96306.09;;;22.53;51.50
25855;BME280;13680;49.936;11.344;2023-07-31T12:51:15;96298.69;;;22.93;50.57
25855;BME280;13680;49.936;11.344;2023-07-31T12:53:40;96300.28;;;23.19;50.42
25855;BME280;13680;49.936;11.344;2023-07-31T12:56:05;96291.63;;;23.32;51.75
25855;BME280;13680;49.936;11.344;2023-07-31T12:58:31;96290.06;;;23.34;51.83
25855;BME280;13680;49.936;11.344;2023-07-31T13:00:56;96287.34;;;22.95;51.52